sensor_id;sensor_type;location;lat;lon;timestamp;P1;durP1;ratioP1;P2;durP2;ratioP2
35907;SDS011;22003;50.320;8.054;2024-01-15T00:00:32;22.30;;;6.68;;
35907;SDS011;22003;50.320;8.054;2024-01-15T00:02:58;23.88;;;8.43;;
35907;SDS011;22003;50.320;8.054;2024-01-15T00:05:23;26.35;;;8.32;;
35907;SDS011;22003;50.320;8.054;2024-01-15T00:07:48;25.80;;;7.43;;
35907;SDS011;22003;50.320;8.054;2024-01-15T00:10:13;25.00;;;8.43;;
35907;SDS011;22003;50.320;8.054;2024-01-15T00:12:39;23.20;;;7.65;;
35907;SDS011;22003;50.320;8.054;2024-01-15T00:15:05;24.23;;;8.10;;
35907;SDS011;22003;50.320;8.054;2024-01-15T00:17:30;25.73;;;9.50;;
35907;SDS011;22003;50.320;8.054;2024-01-15T00:19:56;21.80;;;7.97;;
35907;SDS011;22003;50.320;8.054;2024-01-15T00:22:21;23.25;;;7.72;;
35907;SDS011;22003;50.320;8.054;2024-01-15T00:24:46;20.10;;;8.20;;
35907;SDS011;22003;50.320;8.054;2024-01-15T00:27:12;22.27;;;7.20;;
35907;SDS011;22003;50.320;8.054;2024-01-15T00:29:37;27.08;;;6.95;;
35907;SDS011;22003;50.320;8.054;2024-01-15T00:32:02;26.08;;;8.85;;
35907;SDS011;22003;50.320;8.054;2024-01-15T00:34:28;26.17;;;8.05;;
35907;SDS011;22003;50.320;8.054;2024-01-15T00:36:53;25.95;;;8.52;;
35907;SDS011;22003;50.320;8.054;2024-01-15T00:39:18;31.13;;;9.13;;
35907;SDS011;22003;50.320;8.054;2024-01-15T00:41:44;22.98;;;7.68;;
35907;SDS011;22003;50.320;8.054;2024-01-15T00:44:09;26.35;;;8.88;;
35907;SDS011;22003;50.320;8.054;2024-01-15T00:46:41;25.25;;;8.80;;
35907;SDS011;22003;50.320;8.054;2024-01-15T00:49:08;26.98;;;9.20;;
35907;SDS011;22003;50.320;8.054;2024-01-15T00:51:33;26.27;;;9.40;;
35907;SDS011;22003;50.320;8.054;2024-01-15T00:53:58;24.20;;;7.57;;
35907;SDS011;22003;50.320;8.054;2024-01-15T00:56:24;25.42;;;8.32;;
35907;SDS011;22003;50.320;8.054;2024-01-15T00:58:49;28.23;;;9.70;;
35907;SDS011;22003;50.320;8.054;2024-01-15T01:01:14;27.05;;;8.48;;
35907;SDS011;22003;50.320;8.054;2024-01-15T01:03:39;25.58;;;8.48;;
35907;SDS011;22003;50.320;8.054;2024-01-15T01:06:05;29.38;;;7.47;;
35907;SDS011;22003;50.320;8.054;2024-01-15T01:08:30;32.03;;;9.32;;
35907;SDS011;22003;50.320;8.054;2024-01-15T01:10:55;19.40;;;7.15;;
35907;SDS011;22003;50.320;8.054;2024-01-15T01:13:20;30.58;;;8.57;;
35907;SDS011;22003;50.320;8.054;2024-01-15T01:15:46;25.25;;;7.13;;
35907;SDS011;22003;50.320;8.054;2024-01-15T01:18:11;26.10;;;8.20;;
35907;SDS011;22003;50.320;8.054;2024-01-15T01:20:36;23.45;;;8.52;;
35907;SDS011;22003;50.320;8.054;2024-01-15T01:23:01;22.20;;;7.93;;
35907;SDS011;22003;50.320;8.054;2024-01-15T01:25:28;26.88;;;8.88;;
35907;SDS011;22003;50.320;8.054;2024-01-15T01:27:53;30.70;;;9.32;;
35907;SDS011;22003;50.320;8.054;2024-01-15T01:30:18;22.83;;;8.13;;
35907;SDS011;22003;50.320;8.054;2024-01-15T01:32:44;30.55;;;8.38;;
35907;SDS011;22003;50.320;8.054;2024-01-15T01:35:09;27.42;;;9.10;;
35907;SDS011;22003;50.320;8.054;2024-01-15T01:37:34;31.58;;;9.30;;
35907;SDS011;22003;50.320;8.054;2024-01-15T01:39:59;21.10;;;8.10;;
35907;SDS011;22003;50.320;8.054;2024-01-15T01:42:25;21.10;;;9.02;;
35907;SDS011;22003;50.320;8.054;2024-01-15T01:44:50;23.25;;;7.93;;
35907;SDS011;22003;50.320;8.054;2024-01-15T01:47:15;26.85;;;7.65;;
35907;SDS011;22003;50.320;8.054;2024-01-15T01:49:41;25.98;;;8.45;;
35907;SDS011;22003;50.320;8.054;2024-01-15T01:52:08;27.60;;;6.93;;
35907;SDS011;22003;50.320;8.054;2024-01-15T01:54:35;23.73;;;7.85;;
35907;SDS011;22003;50.320;8.054;2024-01-15T01:57:00;25.23;;;8.75;;
35907;SDS011;22003;50.320;8.054;2024-01-15T01:59:28;28.83;;;9.38;;
35907;SDS011;22003;50.320;8.054;2024-01-15T02:01:55;26.90;;;9.93;;
35907;SDS011;22003;50.320;8.054;2024-01-15T02:04:21;25.55;;;9.82;;
35907;SDS011;22003;50.320;8.054;2024-01-15T02:06:48;25.15;;;8.13;;
35907;SDS011;22003;50.320;8.054;2024-01-15T02:09:13;24.35;;;8.35;;
35907;SDS011;22003;50.320;8.054;2024-01-15T02:11:40;22.35;;;7.53;;
35907;SDS011;22003;50.320;8.054;2024-01-15T02:14:07;27.38;;;9.98;;
35907;SDS011;22003;50.320;8.054;2024-01-15T02:16:33;24.80;;;8.23;;
35907;SDS011;22003;50.320;8.054;2024-01-15T02:18:58;24.88;;;7.82;;
35907;SDS011;22003;50.320;8.054;2024-01-15T02:21:24;25.35;;;8.00;;
35907;SDS011;22003;50.320;8.054;2024-01-15T02:23:51;19.05;;;7.30;;
35907;SDS011;22003;50.320;8.054;2024-01-15T02:26:16;18.30;;;7.28;;
35907;SDS011;22003;50.320;8.054;2024-01-15T02:28:42;24.25;;;7.60;;
35907;SDS011;22003;50.320;8.054;2024-01-15T02:31:09;13.18;;;4.68;;
35907;SDS011;22003;50.320;8.054;2024-01-15T02:33:34;22.80;;;7.43;;
35907;SDS011;22003;50.320;8.054;2024-01-15T02:35:59;19.90;;;6.05;;
35907;SDS011;22003;50.320;8.054;2024-01-15T02:38:25;23.70;;;7.82;;
35907;SDS011;22003;50.320;8.054;2024-01-15T02:40:50;21.65;;;7.57;;
35907;SDS011;22003;50.320;8.054;2024-01-15T02:43:16;26.25;;;7.93;;
35907;SDS011;22003;50.320;8.054;2024-01-15T02:48:09;20.48;;;6.03;;
35907;SDS011;22003;50.320;8.054;2024-01-15T02:50:34;22.08;;;5.75;;
35907;SDS011;22003;50.320;8.054;2024-01-15T02:52:59;19.80;;;6.13;;
35907;SDS011;22003;50.320;8.054;2024-01-15T02:55:24;20.13;;;6.10;;
35907;SDS011;22003;50.320;8.054;2024-01-15T02:57:50;15.43;;;5.32;;
35907;SDS011;22003;50.320;8.054;2024-01-15T03:00:15;20.30;;;6.18;;
35907;SDS011;22003;50.320;8.054;2024-01-15T03:02:40;16.98;;;6.50;;
35907;SDS011;22003;50.320;8.054;2024-01-15T03:07:33;15.30;;;5.57;;
35907;SDS011;22003;50.320;8.054;2024-01-15T03:09:59;23.35;;;7.25;;
35907;SDS011;22003;50.320;8.054;2024-01-15T03:12:24;19.92;;;6.10;;
35907;SDS011;22003;50.320;8.054;2024-01-15T03:14:49;18.85;;;5.75;;
35907;SDS011;22003;50.320;8.054;2024-01-15T03:17:14;21.13;;;6.88;;
35907;SDS011;22003;50.320;8.054;2024-01-15T03:19:40;27.45;;;7.13;;
35907;SDS011;22003;50.320;8.054;2024-01-15T03:22:05;23.65;;;6.43;;
35907;SDS011;22003;50.320;8.054;2024-01-15T03:24:33;26.55;;;7.10;;
35907;SDS011;22003;50.320;8.054;2024-01-15T03:26:58;22.17;;;5.85;;
35907;SDS011;22003;50.320;8.054;2024-01-15T03:29:23;17.30;;;6.43;;
35907;SDS011;22003;50.320;8.054;2024-01-15T03:31:49;21.25;;;6.57;;
35907;SDS011;22003;50.320;8.054;2024-01-15T03:34:14;20.10;;;6.63;;
35907;SDS011;22003;50.320;8.054;2024-01-15T03:36:39;21.20;;;5.53;;
35907;SDS011;22003;50.320;8.054;2024-01-15T03:39:05;21.80;;;7.22;;
35907;SDS011;22003;50.320;8.054;2024-01-15T03:41:31;22.08;;;6.00;;
35907;SDS011;22003;50.320;8.054;2024-01-15T03:43:56;20.60;;;6.75;;
35907;SDS011;22003;50.320;8.054;2024-01-15T03:46:21;20.23;;;7.15;;
35907;SDS011;22003;50.320;8.054;2024-01-15T03:48:47;24.55;;;6.85;;
35907;SDS011;22003;50.320;8.054;2024-01-15T03:51:12;29.65;;;7.80;;
35907;SDS011;22003;50.320;8.054;2024-01-15T03:53:38;30.27;;;7.43;;
35907;SDS011;22003;50.320;8.054;2024-01-15T03:56:03;25.08;;;7.65;;
35907;SDS011;22003;50.320;8.054;2024-01-15T03:58:29;13.80;;;5.45;;
35907;SDS011;22003;50.320;8.054;2024-01-15T04:00:54;18.17;;;6.72;;
35907;SDS011;22003;50.320;8.054;2024-01-15T04:03:19;24.13;;;7.63;;
35907;SDS011;22003;50.320;8.054;2024-01-15T04:05:44;20.08;;;6.32;;
35907;SDS011;22003;50.320;8.054;2024-01-15T04:08:10;21.88;;;7.05;;
35907;SDS011;22003;50.320;8.054;2024-01-15T04:10:35;27.13;;;7.63;;
35907;SDS011;22003;50.320;8.054;2024-01-15T04:13:00;19.25;;;6.72;;
35907;SDS011;22003;50.320;8.054;2024-01-15T04:15:26;24.05;;;7.93;;
35907;SDS011;22003;50.320;8.054;2024-01-15T04:17:52;30.58;;;7.28;;
35907;SDS011;22003;50.320;8.054;2024-01-15T04:20:17;25.13;;;8.07;;
35907;SDS011;22003;50.320;8.054;2024-01-15T04:22:43;27.73;;;6.82;;
35907;SDS011;22003;50.320;8.054;2024-01-15T04:25:09;25.02;;;6.97;;
35907;SDS011;22003;50.320;8.054;2024-01-15T04:27:34;20.27;;;6.65;;
35907;SDS011;22003;50.320;8.054;2024-01-15T04:29:59;25.63;;;7.03;;
35907;SDS011;22003;50.320;8.054;2024-01-15T04:32:24;21.05;;;7.47;;
35907;SDS011;22003;50.320;8.054;2024-01-15T04:34:50;22.27;;;6.45;;
35907;SDS011;22003;50.320;8.054;2024-01-15T04:37:15;21.45;;;7.75;;
35907;SDS011;22003;50.320;8.054;2024-01-15T04:39:40;22.10;;;7.90;;
35907;SDS011;22003;50.320;8.054;2024-01-15T04:42:05;21.92;;;7.55;;
35907;SDS011;22003;50.320;8.054;2024-01-15T04:44:31;26.38;;;8.43;;
35907;SDS011;22003;50.320;8.054;2024-01-15T04:46:56;16.65;;;5.57;;
35907;SDS011;22003;50.320;8.054;2024-01-15T04:49:21;34.33;;;7.88;;
35907;SDS011;22003;50.320;8.054;2024-01-15T04:51:47;29.50;;;8.52;;
35907;SDS011;22003;50.320;8.054;2024-01-15T04:54:12;23.90;;;8.20;;
35907;SDS011;22003;50.320;8.054;2024-01-15T04:56:37;29.77;;;8.63;;
35907;SDS011;22003;50.320;8.054;2024-01-15T04:59:03;29.48;;;7.95;;
35907;SDS011;22003;50.320;8.054;2024-01-15T05:01:31;23.52;;;7.88;;
35907;SDS011;22003;50.320;8.054;2024-01-15T05:03:57;22.50;;;6.03;;
35907;SDS011;22003;50.320;8.054;2024-01-15T05:06:22;17.98;;;6.07;;
35907;SDS011;22003;50.320;8.054;2024-01-15T05:08:48;22.13;;;6.63;;
35907;SDS011;22003;50.320;8.054;2024-01-15T05:11:13;21.33;;;7.15;;
35907;SDS011;22003;50.320;8.054;2024-01-15T05:13:38;26.02;;;7.85;;
35907;SDS011;22003;50.320;8.054;2024-01-15T05:16:03;22.42;;;6.63;;
35907;SDS011;22003;50.320;8.054;2024-01-15T05:18:29;21.95;;;5.97;;
35907;SDS011;22003;50.320;8.054;2024-01-15T05:20:54;23.38;;;7.15;;
35907;SDS011;22003;50.320;8.054;2024-01-15T05:23:19;22.42;;;6.50;;
35907;SDS011;22003;50.320;8.054;2024-01-15T05:25:45;27.92;;;7.57;;
35907;SDS011;22003;50.320;8.054;2024-01-15T05:28:10;28.05;;;7.50;;
35907;SDS011;22003;50.320;8.054;2024-01-15T05:30:35;27.65;;;8.20;;
35907;SDS011;22003;50.320;8.054;2024-01-15T05:33:01;22.70;;;6.78;;
35907;SDS011;22003;50.320;8.054;2024-01-15T05:35:27;23.75;;;5.47;;
35907;SDS011;22003;50.320;8.054;2024-01-15T05:37:52;18.63;;;6.65;;
35907;SDS011;22003;50.320;8.054;2024-01-15T05:40:18;16.48;;;6.97;;
35907;SDS011;22003;50.320;8.054;2024-01-15T05:42:43;25.55;;;8.68;;
35907;SDS011;22003;50.320;8.054;2024-01-15T05:45:09;19.90;;;6.78;;
35907;SDS011;22003;50.320;8.054;2024-01-15T05:47:34;23.60;;;7.15;;
35907;SDS011;22003;50.320;8.054;2024-01-15T05:50:00;29.77;;;9.15;;
35907;SDS011;22003;50.320;8.054;2024-01-15T05:52:26;19.90;;;7.40;;
35907;SDS011;22003;50.320;8.054;2024-01-15T05:54:51;25.40;;;9.77;;
35907;SDS011;22003;50.320;8.054;2024-01-15T05:57:17;26.48;;;8.55;;
35907;SDS011;22003;50.320;8.054;2024-01-15T05:59:42;26.40;;;8.70;;
35907;SDS011;22003;50.320;8.054;2024-01-15T06:02:09;19.83;;;6.78;;
35907;SDS011;22003;50.320;8.054;2024-01-15T06:04:34;25.05;;;6.82;;
35907;SDS011;22003;50.320;8.054;2024-01-15T06:06:59;23.77;;;7.47;;
35907;SDS011;22003;50.320;8.054;2024-01-15T06:09:25;24.88;;;7.97;;
35907;SDS011;22003;50.320;8.054;2024-01-15T06:11:50;26.08;;;7.78;;
35907;SDS011;22003;50.320;8.054;2024-01-15T06:14:15;17.02;;;6.13;;
35907;SDS011;22003;50.320;8.054;2024-01-15T06:16:40;25.05;;;7.07;;
35907;SDS011;22003;50.320;8.054;2024-01-15T06:19:05;29.65;;;9.40;;
35907;SDS011;22003;50.320;8.054;2024-01-15T06:21:31;28.65;;;7.45;;
35907;SDS011;22003;50.320;8.054;2024-01-15T06:23:56;26.55;;;7.22;;
35907;SDS011;22003;50.320;8.054;2024-01-15T06:26:22;30.65;;;7.13;;
35907;SDS011;22003;50.320;8.054;2024-01-15T06:28:47;27.08;;;8.85;;
35907;SDS011;22003;50.320;8.054;2024-01-15T06:31:13;28.23;;;8.98;;
35907;SDS011;22003;50.320;8.054;2024-01-15T06:33:38;29.73;;;8.68;;
35907;SDS011;22003;50.320;8.054;2024-01-15T06:36:04;32.55;;;8.00;;
35907;SDS011;22003;50.320;8.054;2024-01-15T06:38:30;29.07;;;8.20;;
35907;SDS011;22003;50.320;8.054;2024-01-15T06:40:55;26.07;;;8.13;;
35907;SDS011;22003;50.320;8.054;2024-01-15T06:43:20;25.55;;;8.23;;
35907;SDS011;22003;50.320;8.054;2024-01-15T06:45:46;20.02;;;6.90;;
35907;SDS011;22003;50.320;8.054;2024-01-15T06:48:11;28.05;;;8.60;;
35907;SDS011;22003;50.320;8.054;2024-01-15T06:50:41;19.95;;;7.00;;
35907;SDS011;22003;50.320;8.054;2024-01-15T06:53:06;18.10;;;8.20;;
35907;SDS011;22003;50.320;8.054;2024-01-15T06:55:31;31.60;;;9.38;;
35907;SDS011;22003;50.320;8.054;2024-01-15T06:57:57;25.77;;;7.85;;
35907;SDS011;22003;50.320;8.054;2024-01-15T07:00:22;29.13;;;8.75;;
35907;SDS011;22003;50.320;8.054;2024-01-15T07:02:47;22.02;;;6.85;;
35907;SDS011;22003;50.320;8.054;2024-01-15T07:05:12;27.77;;;7.65;;
35907;SDS011;22003;50.320;8.054;2024-01-15T07:07:38;29.50;;;8.55;;
35907;SDS011;22003;50.320;8.054;2024-01-15T07:10:03;24.60;;;8.35;;
35907;SDS011;22003;50.320;8.054;2024-01-15T07:12:30;18.23;;;5.82;;
35907;SDS011;22003;50.320;8.054;2024-01-15T07:14:56;26.00;;;8.20;;
35907;SDS011;22003;50.320;8.054;2024-01-15T07:17:21;34.83;;;9.00;;
35907;SDS011;22003;50.320;8.054;2024-01-15T07:19:46;22.77;;;7.65;;
35907;SDS011;22003;50.320;8.054;2024-01-15T07:22:12;29.48;;;9.35;;
35907;SDS011;22003;50.320;8.054;2024-01-15T07:24:37;25.25;;;8.35;;
35907;SDS011;22003;50.320;8.054;2024-01-15T07:27:02;27.52;;;8.43;;
35907;SDS011;22003;50.320;8.054;2024-01-15T07:29:29;27.08;;;7.88;;
35907;SDS011;22003;50.320;8.054;2024-01-15T07:31:55;27.73;;;7.68;;
35907;SDS011;22003;50.320;8.054;2024-01-15T07:34:20;22.02;;;7.70;;
35907;SDS011;22003;50.320;8.054;2024-01-15T07:36:46;26.48;;;8.77;;
35907;SDS011;22003;50.320;8.054;2024-01-15T07:39:12;32.28;;;7.78;;
35907;SDS011;22003;50.320;8.054;2024-01-15T07:41:37;27.50;;;7.10;;
35907;SDS011;22003;50.320;8.054;2024-01-15T07:44:03;32.38;;;10.45;;
35907;SDS011;22003;50.320;8.054;2024-01-15T07:46:28;21.00;;;6.70;;
35907;SDS011;22003;50.320;8.054;2024-01-15T07:48:53;24.98;;;7.90;;
35907;SDS011;22003;50.320;8.054;2024-01-15T07:51:22;27.92;;;6.68;;
35907;SDS011;22003;50.320;8.054;2024-01-15T07:53:48;35.58;;;9.10;;
35907;SDS011;22003;50.320;8.054;2024-01-15T07:56:13;18.98;;;6.47;;
35907;SDS011;22003;50.320;8.054;2024-01-15T07:58:39;19.40;;;7.53;;
35907;SDS011;22003;50.320;8.054;2024-01-15T08:01:04;25.73;;;8.18;;
35907;SDS011;22003;50.320;8.054;2024-01-15T08:03:29;14.90;;;6.95;;
35907;SDS011;22003;50.320;8.054;2024-01-15T08:05:55;23.50;;;6.50;;
35907;SDS011;22003;50.320;8.054;2024-01-15T08:10:48;16.73;;;5.75;;
35907;SDS011;22003;50.320;8.054;2024-01-15T08:13:13;16.17;;;5.03;;
35907;SDS011;22003;50.320;8.054;2024-01-15T08:15:39;19.10;;;5.80;;
35907;SDS011;22003;50.320;8.054;2024-01-15T08:18:04;20.58;;;7.93;;
35907;SDS011;22003;50.320;8.054;2024-01-15T08:20:30;24.17;;;7.32;;
35907;SDS011;22003;50.320;8.054;2024-01-15T08:22:55;16.75;;;6.63;;
35907;SDS011;22003;50.320;8.054;2024-01-15T08:25:21;17.08;;;7.57;;
35907;SDS011;22003;50.320;8.054;2024-01-15T08:27:46;22.88;;;8.10;;
35907;SDS011;22003;50.320;8.054;2024-01-15T08:30:11;20.15;;;7.43;;
35907;SDS011;22003;50.320;8.054;2024-01-15T08:32:37;16.42;;;6.28;;
35907;SDS011;22003;50.320;8.054;2024-01-15T08:35:07;14.20;;;6.47;;
35907;SDS011;22003;50.320;8.054;2024-01-15T08:37:32;22.88;;;6.30;;
35907;SDS011;22003;50.320;8.054;2024-01-15T08:39:57;30.80;;;7.57;;
35907;SDS011;22003;50.320;8.054;2024-01-15T08:42:23;22.90;;;6.78;;
35907;SDS011;22003;50.320;8.054;2024-01-15T08:44:48;12.57;;;4.63;;
35907;SDS011;22003;50.320;8.054;2024-01-15T08:47:13;23.23;;;7.00;;
35907;SDS011;22003;50.320;8.054;2024-01-15T08:49:39;14.77;;;6.28;;
35907;SDS011;22003;50.320;8.054;2024-01-15T08:52:05;19.40;;;6.43;;
35907;SDS011;22003;50.320;8.054;2024-01-15T08:54:30;20.75;;;7.85;;
35907;SDS011;22003;50.320;8.054;2024-01-15T08:56:55;25.33;;;8.25;;
35907;SDS011;22003;50.320;8.054;2024-01-15T08:59:21;20.52;;;5.78;;
35907;SDS011;22003;50.320;8.054;2024-01-15T09:01:50;18.40;;;7.53;;
35907;SDS011;22003;50.320;8.054;2024-01-15T09:04:15;29.45;;;6.68;;
35907;SDS011;22003;50.320;8.054;2024-01-15T09:06:42;21.20;;;7.60;;
35907;SDS011;22003;50.320;8.054;2024-01-15T09:09:10;13.73;;;4.85;;
35907;SDS011;22003;50.320;8.054;2024-01-15T09:11:35;25.08;;;5.60;;
35907;SDS011;22003;50.320;8.054;2024-01-15T09:14:01;26.10;;;6.80;;
35907;SDS011;22003;50.320;8.054;2024-01-15T09:16:26;17.05;;;7.10;;
35907;SDS011;22003;50.320;8.054;2024-01-15T09:18:51;18.30;;;4.47;;
35907;SDS011;22003;50.320;8.054;2024-01-15T09:21:16;20.38;;;6.10;;
35907;SDS011;22003;50.320;8.054;2024-01-15T09:23:42;19.70;;;6.30;;
35907;SDS011;22003;50.320;8.054;2024-01-15T09:26:08;10.93;;;4.60;;
35907;SDS011;22003;50.320;8.054;2024-01-15T09:28:33;16.48;;;4.80;;
35907;SDS011;22003;50.320;8.054;2024-01-15T09:30:58;17.67;;;5.60;;
35907;SDS011;22003;50.320;8.054;2024-01-15T09:33:24;18.50;;;4.90;;
35907;SDS011;22003;50.320;8.054;2024-01-15T09:35:49;16.15;;;4.45;;
35907;SDS011;22003;50.320;8.054;2024-01-15T09:38:14;16.85;;;6.28;;
35907;SDS011;22003;50.320;8.054;2024-01-15T09:40:40;13.45;;;5.90;;
35907;SDS011;22003;50.320;8.054;2024-01-15T09:43:10;11.85;;;5.15;;
35907;SDS011;22003;50.320;8.054;2024-01-15T09:45:36;12.95;;;4.88;;
35907;SDS011;22003;50.320;8.054;2024-01-15T09:48:01;8.43;;;3.92;;
35907;SDS011;22003;50.320;8.054;2024-01-15T09:50:27;17.70;;;5.78;;
35907;SDS011;22003;50.320;8.054;2024-01-15T09:52:52;17.33;;;6.03;;
35907;SDS011;22003;50.320;8.054;2024-01-15T09:55:17;14.05;;;4.78;;
35907;SDS011;22003;50.320;8.054;2024-01-15T09:57:43;15.25;;;5.88;;
35907;SDS011;22003;50.320;8.054;2024-01-15T10:02:36;13.05;;;5.38;;
35907;SDS011;22003;50.320;8.054;2024-01-15T10:05:01;11.57;;;4.88;;
35907;SDS011;22003;50.320;8.054;2024-01-15T10:07:27;14.20;;;6.25;;
35907;SDS011;22003;50.320;8.054;2024-01-15T10:09:54;15.50;;;5.05;;
35907;SDS011;22003;50.320;8.054;2024-01-15T10:12:20;10.80;;;3.55;;
35907;SDS011;22003;50.320;8.054;2024-01-15T10:14:47;11.30;;;6.63;;
35907;SDS011;22003;50.320;8.054;2024-01-15T10:17:14;9.88;;;4.55;;
35907;SDS011;22003;50.320;8.054;2024-01-15T10:19:42;12.45;;;4.60;;
35907;SDS011;22003;50.320;8.054;2024-01-15T10:22:09;11.25;;;3.63;;
35907;SDS011;22003;50.320;8.054;2024-01-15T10:24:36;10.77;;;4.55;;
35907;SDS011;22003;50.320;8.054;2024-01-15T10:27:06;7.00;;;4.20;;
35907;SDS011;22003;50.320;8.054;2024-01-15T10:29:32;13.70;;;4.63;;
35907;SDS011;22003;50.320;8.054;2024-01-15T10:31:57;11.80;;;4.65;;
35907;SDS011;22003;50.320;8.054;2024-01-15T10:34:24;9.57;;;3.03;;
35907;SDS011;22003;50.320;8.054;2024-01-15T10:36:50;10.35;;;4.32;;
35907;SDS011;22003;50.320;8.054;2024-01-15T10:39:20;7.43;;;3.50;;
35907;SDS011;22003;50.320;8.054;2024-01-15T10:41:49;13.13;;;4.03;;
35907;SDS011;22003;50.320;8.054;2024-01-15T10:44:16;6.95;;;4.28;;
35907;SDS011;22003;50.320;8.054;2024-01-15T10:46:44;13.20;;;6.07;;
35907;SDS011;22003;50.320;8.054;2024-01-15T10:49:10;10.25;;;4.47;;
35907;SDS011;22003;50.320;8.054;2024-01-15T10:51:36;11.40;;;4.20;;
35907;SDS011;22003;50.320;8.054;2024-01-15T10:54:02;8.80;;;4.03;;
35907;SDS011;22003;50.320;8.054;2024-01-15T10:56:28;8.68;;;3.55;;
35907;SDS011;22003;50.320;8.054;2024-01-15T10:58:56;11.98;;;3.92;;
35907;SDS011;22003;50.320;8.054;2024-01-15T11:01:22;8.95;;;4.28;;
35907;SDS011;22003;50.320;8.054;2024-01-15T11:03:48;9.80;;;3.80;;
35907;SDS011;22003;50.320;8.054;2024-01-15T11:06:19;13.45;;;5.18;;
35907;SDS011;22003;50.320;8.054;2024-01-15T11:08:45;9.32;;;4.57;;
35907;SDS011;22003;50.320;8.054;2024-01-15T11:11:13;13.18;;;4.93;;
35907;SDS011;22003;50.320;8.054;2024-01-15T11:13:40;14.10;;;5.45;;
35907;SDS011;22003;50.320;8.054;2024-01-15T11:16:07;9.80;;;4.28;;
35907;SDS011;22003;50.320;8.054;2024-01-15T11:18:40;18.17;;;3.88;;
35907;SDS011;22003;50.320;8.054;2024-01-15T11:23:47;7.68;;;3.55;;
35907;SDS011;22003;50.320;8.054;2024-01-15T11:26:26;13.07;;;3.58;;
35907;SDS011;22003;50.320;8.054;2024-01-15T11:28:59;8.40;;;3.90;;
35907;SDS011;22003;50.320;8.054;2024-01-15T11:34:03;9.70;;;3.00;;
35907;SDS011;22003;50.320;8.054;2024-01-15T11:41:58;11.88;;;4.57;;
35907;SDS011;22003;50.320;8.054;2024-01-15T11:44:25;7.03;;;3.40;;
35907;SDS011;22003;50.320;8.054;2024-01-15T11:47:03;16.05;;;3.90;;
35907;SDS011;22003;50.320;8.054;2024-01-15T11:52:18;9.10;;;3.47;;
35907;SDS011;22003;50.320;8.054;2024-01-15T11:55:06;6.85;;;3.00;;
35907;SDS011;22003;50.320;8.054;2024-01-15T12:00:05;6.05;;;2.97;;
35907;SDS011;22003;50.320;8.054;2024-01-15T12:02:31;14.70;;;4.72;;
35907;SDS011;22003;50.320;8.054;2024-01-15T12:04:57;7.60;;;3.58;;
35907;SDS011;22003;50.320;8.054;2024-01-15T12:07:22;7.70;;;3.03;;
35907;SDS011;22003;50.320;8.054;2024-01-15T12:09:47;8.48;;;4.30;;
35907;SDS011;22003;50.320;8.054;2024-01-15T12:12:13;8.55;;;3.40;;
35907;SDS011;22003;50.320;8.054;2024-01-15T12:14:56;13.93;;;3.95;;
35907;SDS011;22003;50.320;8.054;2024-01-15T12:17:21;13.25;;;3.83;;
35907;SDS011;22003;50.320;8.054;2024-01-15T12:19:46;10.38;;;3.92;;
35907;SDS011;22003;50.320;8.054;2024-01-15T12:22:12;10.60;;;3.00;;
35907;SDS011;22003;50.320;8.054;2024-01-15T12:24:38;11.23;;;3.88;;
35907;SDS011;22003;50.320;8.054;2024-01-15T12:27:03;14.95;;;4.28;;
35907;SDS011;22003;50.320;8.054;2024-01-15T12:29:29;21.10;;;6.10;;
35907;SDS011;22003;50.320;8.054;2024-01-15T12:31:55;9.65;;;4.82;;
35907;SDS011;22003;50.320;8.054;2024-01-15T12:34:21;16.20;;;4.80;;
35907;SDS011;22003;50.320;8.054;2024-01-15T12:36:47;11.13;;;4.82;;
35907;SDS011;22003;50.320;8.054;2024-01-15T12:39:12;7.88;;;3.72;;
35907;SDS011;22003;50.320;8.054;2024-01-15T12:41:38;7.43;;;3.03;;
35907;SDS011;22003;50.320;8.054;2024-01-15T12:44:04;11.95;;;4.45;;
35907;SDS011;22003;50.320;8.054;2024-01-15T12:46:29;10.88;;;4.25;;
35907;SDS011;22003;50.320;8.054;2024-01-15T12:48:55;7.30;;;3.10;;
35907;SDS011;22003;50.320;8.054;2024-01-15T12:51:24;10.70;;;4.10;;
35907;SDS011;22003;50.320;8.054;2024-01-15T12:53:50;9.13;;;3.15;;
35907;SDS011;22003;50.320;8.054;2024-01-15T12:56:15;11.55;;;4.45;;
35907;SDS011;22003;50.320;8.054;2024-01-15T12:58:41;6.60;;;2.95;;
35907;SDS011;22003;50.320;8.054;2024-01-15T13:01:06;9.77;;;4.20;;
35907;SDS011;22003;50.320;8.054;2024-01-15T13:03:31;11.07;;;2.88;;
35907;SDS011;22003;50.320;8.054;2024-01-15T13:05:56;8.13;;;2.70;;
35907;SDS011;22003;50.320;8.054;2024-01-15T13:08:22;9.80;;;2.17;;
35907;SDS011;22003;50.320;8.054;2024-01-15T13:10:50;9.65;;;3.40;;
35907;SDS011;22003;50.320;8.054;2024-01-15T13:13:17;4.60;;;2.10;;
35907;SDS011;22003;50.320;8.054;2024-01-15T13:15:42;3.45;;;1.75;;
35907;SDS011;22003;50.320;8.054;2024-01-15T13:18:07;6.30;;;2.38;;
35907;SDS011;22003;50.320;8.054;2024-01-15T13:20:33;6.10;;;2.75;;
35907;SDS011;22003;50.320;8.054;2024-01-15T13:22:58;9.25;;;2.40;;
35907;SDS011;22003;50.320;8.054;2024-01-15T13:25:23;12.02;;;2.20;;
35907;SDS011;22003;50.320;8.054;2024-01-15T13:27:49;3.42;;;2.72;;
35907;SDS011;22003;50.320;8.054;2024-01-15T13:30:15;5.57;;;2.33;;
35907;SDS011;22003;50.320;8.054;2024-01-15T13:32:40;6.03;;;2.85;;
35907;SDS011;22003;50.320;8.054;2024-01-15T13:35:06;3.45;;;1.67;;
35907;SDS011;22003;50.320;8.054;2024-01-15T13:37:34;2.90;;;2.22;;
35907;SDS011;22003;50.320;8.054;2024-01-15T13:39:59;3.60;;;2.13;;
35907;SDS011;22003;50.320;8.054;2024-01-15T13:42:25;5.05;;;2.65;;
35907;SDS011;22003;50.320;8.054;2024-01-15T13:44:52;5.43;;;2.17;;
35907;SDS011;22003;50.320;8.054;2024-01-15T13:47:17;5.50;;;1.85;;
35907;SDS011;22003;50.320;8.054;2024-01-15T13:49:42;4.28;;;1.63;;
35907;SDS011;22003;50.320;8.054;2024-01-15T13:52:08;5.97;;;2.58;;
35907;SDS011;22003;50.320;8.054;2024-01-15T13:54:33;2.53;;;1.38;;
35907;SDS011;22003;50.320;8.054;2024-01-15T13:56:58;6.80;;;2.00;;
35907;SDS011;22003;50.320;8.054;2024-01-15T13:59:24;5.13;;;1.35;;
35907;SDS011;22003;50.320;8.054;2024-01-15T14:01:49;3.35;;;2.17;;
35907;SDS011;22003;50.320;8.054;2024-01-15T14:04:14;15.27;;;1.83;;
35907;SDS011;22003;50.320;8.054;2024-01-15T14:06:40;2.65;;;1.30;;
35907;SDS011;22003;50.320;8.054;2024-01-15T14:09:06;3.42;;;2.38;;
35907;SDS011;22003;50.320;8.054;2024-01-15T14:11:34;7.35;;;2.38;;
35907;SDS011;22003;50.320;8.054;2024-01-15T14:14:00;1.45;;;1.33;;
35907;SDS011;22003;50.320;8.054;2024-01-15T14:16:26;2.25;;;1.75;;
35907;SDS011;22003;50.320;8.054;2024-01-15T14:18:54;6.43;;;3.17;;
35907;SDS011;22003;50.320;8.054;2024-01-15T14:21:20;6.05;;;1.92;;
35907;SDS011;22003;50.320;8.054;2024-01-15T14:23:45;4.47;;;1.85;;
35907;SDS011;22003;50.320;8.054;2024-01-15T14:26:10;5.97;;;2.03;;
35907;SDS011;22003;50.320;8.054;2024-01-15T14:28:36;1.23;;;0.73;;
35907;SDS011;22003;50.320;8.054;2024-01-15T14:31:01;1.88;;;1.55;;
35907;SDS011;22003;50.320;8.054;2024-01-15T14:33:26;7.53;;;1.85;;
35907;SDS011;22003;50.320;8.054;2024-01-15T14:35:52;5.32;;;2.45;;
35907;SDS011;22003;50.320;8.054;2024-01-15T14:38:17;3.13;;;1.08;;
35907;SDS011;22003;50.320;8.054;2024-01-15T14:40:43;1.65;;;1.20;;
35907;SDS011;22003;50.320;8.054;2024-01-15T14:43:09;6.50;;;0.85;;
35907;SDS011;22003;50.320;8.054;2024-01-15T14:45:34;2.15;;;1.83;;
35907;SDS011;22003;50.320;8.054;2024-01-15T14:48:00;4.05;;;2.05;;
35907;SDS011;22003;50.320;8.054;2024-01-15T14:50:25;5.30;;;2.05;;
35907;SDS011;22003;50.320;8.054;2024-01-15T14:52:50;2.63;;;1.73;;
35907;SDS011;22003;50.320;8.054;2024-01-15T14:55:15;2.17;;;1.65;;